sensor_id;sensor_type;location;lat;lon;timestamp;temperature;humidity
45785;DHT22;31489;51.404;5.474;2023-10-09T00:02:13;19.30;76.20
45785;DHT22;31489;51.404;5.474;2023-10-09T00:04:42;19.30;76.20
45785;DHT22;31489;51.404;5.474;2023-10-09T00:07:13;19.30;76.80
45785;DHT22;31489;51.404;5.474;2023-10-09T00:09:42;19.30;76.40
45785;DHT22;31489;51.404;5.474;2023-10-09T00:12:17;19.30;76.50
45785;DHT22;31489;51.404;5.474;2023-10-09T00:14:48;19.30;76.80
45785;DHT22;31489;51.404;5.474;2023-10-09T00:17:16;19.30;76.80
45785;DHT22;31489;51.404;5.474;2023-10-09T00:19:46;19.30;76.70
45785;DHT22;31489;51.404;5.474;2023-10-09T00:22:24;19.30;77.00
45785;DHT22;31489;51.404;5.474;2023-10-09T00:24:51;19.30;76.70
45785;DHT22;31489;51.404;5.474;2023-10-09T00:27:35;19.40;76.90
45785;DHT22;31489;51.404;5.474;2023-10-09T00:30:01;19.40;76.80
45785;DHT22;31489;51.404;5.474;2023-10-09T00:32:28;19.40;76.90
45785;DHT22;31489;51.404;5.474;2023-10-09T00:34:58;19.40;76.90
45785;DHT22;31489;51.404;5.474;2023-10-09T00:37:25;19.40;76.80
45785;DHT22;31489;51.404;5.474;2023-10-09T00:39:52;19.40;76.90
45785;DHT22;31489;51.404;5.474;2023-10-09T00:42:25;19.50;76.90
45785;DHT22;31489;51.404;5.474;2023-10-09T00:44:58;19.50;77.00
45785;DHT22;31489;51.404;5.474;2023-10-09T00:47:31;19.50;77.10
45785;DHT22;31489;51.404;5.474;2023-10-09T00:50:05;19.50;77.10
45785;DHT22;31489;51.404;5.474;2023-10-09T00:52:42;19.50;77.10
45785;DHT22;31489;51.404;5.474;2023-10-09T00:55:15;19.50;76.80
45785;DHT22;31489;51.404;5.474;2023-10-09T00:57:47;19.50;76.80
45785;DHT22;31489;51.404;5.474;2023-10-09T01:00:26;19.50;76.80
45785;DHT22;31489;51.404;5.474;2023-10-09T01:03:00;19.50;76.80
45785;DHT22;31489;51.404;5.474;2023-10-09T01:05:41;19.50;76.80
45785;DHT22;31489;51.404;5.474;2023-10-09T01:08:17;19.60;76.70
45785;DHT22;31489;51.404;5.474;2023-10-09T01:10:51;19.60;76.70
45785;DHT22;31489;51.404;5.474;2023-10-09T01:13:24;19.60;76.70
45785;DHT22;31489;51.404;5.474;2023-10-09T01:16:07;19.60;76.80
45785;DHT22;31489;51.404;5.474;2023-10-09T01:18:46;19.60;77.10
45785;DHT22;31489;51.404;5.474;2023-10-09T01:21:15;19.60;77.10
45785;DHT22;31489;51.404;5.474;2023-10-09T01:23:45;19.60;76.80
45785;DHT22;31489;51.404;5.474;2023-10-09T01:29:00;19.60;76.80
45785;DHT22;31489;51.404;5.474;2023-10-09T01:31:27;19.60;76.80
45785;DHT22;31489;51.404;5.474;2023-10-09T01:33:59;19.60;76.90
45785;DHT22;31489;51.404;5.474;2023-10-09T01:36:26;19.60;77.00
45785;DHT22;31489;51.404;5.474;2023-10-09T01:39:04;19.60;76.90
45785;DHT22;31489;51.404;5.474;2023-10-09T01:41:52;19.60;77.00
45785;DHT22;31489;51.404;5.474;2023-10-09T01:44:24;19.60;77.00
45785;DHT22;31489;51.404;5.474;2023-10-09T01:46:52;19.60;76.80
45785;DHT22;31489;51.404;5.474;2023-10-09T01:49:20;19.60;76.80
45785;DHT22;31489;51.404;5.474;2023-10-09T01:51:56;19.60;76.80
45785;DHT22;31489;51.404;5.474;2023-10-09T01:54:26;19.60;77.40
45785;DHT22;31489;51.404;5.474;2023-10-09T01:57:08;19.60;76.80
45785;DHT22;31489;51.404;5.474;2023-10-09T01:59:40;19.60;76.90
45785;DHT22;31489;51.404;5.474;2023-10-09T02:02:10;19.60;76.70
45785;DHT22;31489;51.404;5.474;2023-10-09T02:05:05;19.60;76.60
45785;DHT22;31489;51.404;5.474;2023-10-09T02:07:40;19.60;77.00
45785;DHT22;31489;51.404;5.474;2023-10-09T02:10:11;19.60;76.50
45785;DHT22;31489;51.404;5.474;2023-10-09T02:12:47;19.60;76.60
45785;DHT22;31489;51.404;5.474;2023-10-09T02:15:18;19.60;76.70
45785;DHT22;31489;51.404;5.474;2023-10-09T02:18:03;19.60;76.70
45785;DHT22;31489;51.404;5.474;2023-10-09T02:20:42;19.60;76.70
45785;DHT22;31489;51.404;5.474;2023-10-09T02:23:10;19.60;76.50
45785;DHT22;31489;51.404;5.474;2023-10-09T02:25:39;19.60;76.70
45785;DHT22;31489;51.404;5.474;2023-10-09T02:28:09;19.60;76.70
45785;DHT22;31489;51.404;5.474;2023-10-09T02:30:43;19.60;76.50
45785;DHT22;31489;51.404;5.474;2023-10-09T02:33:16;19.60;76.70
45785;DHT22;31489;51.404;5.474;2023-10-09T02:35:53;19.60;76.60
45785;DHT22;31489;51.404;5.474;2023-10-09T02:38:20;19.60;76.50
45785;DHT22;31489;51.404;5.474;2023-10-09T02:40:50;19.60;76.50
45785;DHT22;31489;51.404;5.474;2023-10-09T02:43:39;19.60;76.40
45785;DHT22;31489;51.404;5.474;2023-10-09T02:46:15;19.60;76.50
45785;DHT22;31489;51.404;5.474;2023-10-09T02:48:45;19.60;76.40
45785;DHT22;31489;51.404;5.474;2023-10-09T02:51:25;19.60;76.30
45785;DHT22;31489;51.404;5.474;2023-10-09T02:53:55;19.60;76.40
45785;DHT22;31489;51.404;5.474;2023-10-09T02:56:22;19.60;76.40
45785;DHT22;31489;51.404;5.474;2023-10-09T02:59:01;19.60;76.50
45785;DHT22;31489;51.404;5.474;2023-10-09T03:01:31;19.60;76.30
45785;DHT22;31489;51.404;5.474;2023-10-09T03:03:57;19.60;76.40
45785;DHT22;31489;51.404;5.474;2023-10-09T03:06:24;19.60;76.20
45785;DHT22;31489;51.404;5.474;2023-10-09T03:09:00;19.60;76.10
45785;DHT22;31489;51.404;5.474;2023-10-09T03:11:26;19.60;76.10
45785;DHT22;31489;51.404;5.474;2023-10-09T03:13:57;19.60;76.30
45785;DHT22;31489;51.404;5.474;2023-10-09T03:16:23;19.60;76.40
45785;DHT22;31489;51.404;5.474;2023-10-09T03:18:50;19.60;76.20
45785;DHT22;31489;51.404;5.474;2023-10-09T03:21:16;19.60;76.40
45785;DHT22;31489;51.404;5.474;2023-10-09T03:23:46;19.50;76.30
45785;DHT22;31489;51.404;5.474;2023-10-09T03:26:18;19.60;76.30
45785;DHT22;31489;51.404;5.474;2023-10-09T03:28:48;19.50;76.10
45785;DHT22;31489;51.404;5.474;2023-10-09T03:31:14;19.50;76.00
45785;DHT22;31489;51.404;5.474;2023-10-09T03:33:40;19.50;76.00
45785;DHT22;31489;51.404;5.474;2023-10-09T03:36:06;19.50;76.00
45785;DHT22;31489;51.404;5.474;2023-10-09T03:38:37;19.50;76.00
45785;DHT22;31489;51.404;5.474;2023-10-09T03:41:04;19.50;76.00
45785;DHT22;31489;51.404;5.474;2023-10-09T03:43:38;19.50;76.00
45785;DHT22;31489;51.404;5.474;2023-10-09T03:46:05;19.50;76.00
45785;DHT22;31489;51.404;5.474;2023-10-09T03:48:38;19.50;76.00
45785;DHT22;31489;51.404;5.474;2023-10-09T03:51:03;19.50;76.00
45785;DHT22;31489;51.404;5.474;2023-10-09T03:53:37;19.50;76.00
45785;DHT22;31489;51.404;5.474;2023-10-09T03:56:07;19.50;75.90
45785;DHT22;31489;51.404;5.474;2023-10-09T03:58:46;19.50;76.00
45785;DHT22;31489;51.404;5.474;2023-10-09T04:01:20;19.50;76.10
45785;DHT22;31489;51.404;5.474;2023-10-09T04:04:03;19.40;76.00
45785;DHT22;31489;51.404;5.474;2023-10-09T04:06:30;19.50;75.90
45785;DHT22;31489;51.404;5.474;2023-10-09T04:08:58;19.50;76.00
45785;DHT22;31489;51.404;5.474;2023-10-09T04:11:25;19.50;76.00
45785;DHT22;31489;51.404;5.474;2023-10-09T04:13:51;19.40;76.00
45785;DHT22;31489;51.404;5.474;2023-10-09T04:16:21;19.40;76.00
45785;DHT22;31489;51.404;5.474;2023-10-09T04:18:57;19.50;76.00
45785;DHT22;31489;51.404;5.474;2023-10-09T04:21:26;19.50;75.90
45785;DHT22;31489;51.404;5.474;2023-10-09T04:24:06;19.40;75.80
45785;DHT22;31489;51.404;5.474;2023-10-09T04:26:35;19.40;75.90
45785;DHT22;31489;51.404;5.474;2023-10-09T04:29:02;19.40;75.80
45785;DHT22;31489;51.404;5.474;2023-10-09T04:31:28;19.40;75.80
45785;DHT22;31489;51.404;5.474;2023-10-09T04:34:00;19.40;75.90
45785;DHT22;31489;51.404;5.474;2023-10-09T04:36:45;19.40;76.00
45785;DHT22;31489;51.404;5.474;2023-10-09T04:39:15;19.40;75.80
45785;DHT22;31489;51.404;5.474;2023-10-09T04:41:51;19.40;75.90
45785;DHT22;31489;51.404;5.474;2023-10-09T04:44:18;19.40;75.90
45785;DHT22;31489;51.404;5.474;2023-10-09T04:46:55;19.30;75.80
45785;DHT22;31489;51.404;5.474;2023-10-09T04:49:39;19.40;75.90
45785;DHT22;31489;51.404;5.474;2023-10-09T04:52:17;19.30;76.00
45785;DHT22;31489;51.404;5.474;2023-10-09T04:54:55;19.30;75.90
45785;DHT22;31489;51.404;5.474;2023-10-09T04:57:30;19.30;76.00
45785;DHT22;31489;51.404;5.474;2023-10-09T05:00:04;19.30;76.00
45785;DHT22;31489;51.404;5.474;2023-10-09T05:02:32;19.20;76.10
45785;DHT22;31489;51.404;5.474;2023-10-09T05:05:02;19.30;76.20
45785;DHT22;31489;51.404;5.474;2023-10-09T05:08:03;19.20;76.20
45785;DHT22;31489;51.404;5.474;2023-10-09T05:10:52;19.20;76.10
45785;DHT22;31489;51.404;5.474;2023-10-09T05:16:10;19.20;76.30
45785;DHT22;31489;51.404;5.474;2023-10-09T05:18:41;19.20;76.30
45785;DHT22;31489;51.404;5.474;2023-10-09T05:21:07;19.20;76.20
45785;DHT22;31489;51.404;5.474;2023-10-09T05:23:41;19.20;76.30
45785;DHT22;31489;51.404;5.474;2023-10-09T05:26:17;19.20;76.30
45785;DHT22;31489;51.404;5.474;2023-10-09T05:29:03;19.20;76.30
45785;DHT22;31489;51.404;5.474;2023-10-09T05:31:46;19.20;76.30
45785;DHT22;31489;51.404;5.474;2023-10-09T05:34:23;19.20;76.40
45785;DHT22;31489;51.404;5.474;2023-10-09T05:37:00;19.20;76.40
45785;DHT22;31489;51.404;5.474;2023-10-09T05:39:45;19.20;76.40
45785;DHT22;31489;51.404;5.474;2023-10-09T05:42:33;19.20;76.40
45785;DHT22;31489;51.404;5.474;2023-10-09T05:45:12;19.20;76.50
45785;DHT22;31489;51.404;5.474;2023-10-09T05:47:44;19.20;76.60
45785;DHT22;31489;51.404;5.474;2023-10-09T05:50:20;19.20;76.60
45785;DHT22;31489;51.404;5.474;2023-10-09T05:53:00;19.20;76.60
45785;DHT22;31489;51.404;5.474;2023-10-09T05:55:35;19.20;76.60
45785;DHT22;31489;51.404;5.474;2023-10-09T05:58:20;19.30;76.50
45785;DHT22;31489;51.404;5.474;2023-10-09T06:01:04;19.30;76.50
45785;DHT22;31489;51.404;5.474;2023-10-09T06:03:48;19.20;76.40
45785;DHT22;31489;51.404;5.474;2023-10-09T06:06:15;19.20;76.40
45785;DHT22;31489;51.404;5.474;2023-10-09T06:09:01;19.20;76.50
45785;DHT22;31489;51.404;5.474;2023-10-09T06:11:39;19.20;76.60
45785;DHT22;31489;51.404;5.474;2023-10-09T06:14:05;19.20;76.60
45785;DHT22;31489;51.404;5.474;2023-10-09T06:16:41;19.20;76.60
45785;DHT22;31489;51.404;5.474;2023-10-09T06:19:10;19.20;76.80
45785;DHT22;31489;51.404;5.474;2023-10-09T06:21:45;19.20;76.80
45785;DHT22;31489;51.404;5.474;2023-10-09T06:24:21;19.20;76.80
45785;DHT22;31489;51.404;5.474;2023-10-09T06:26:49;19.20;76.80
45785;DHT22;31489;51.404;5.474;2023-10-09T06:29:23;19.20;76.70
45785;DHT22;31489;51.404;5.474;2023-10-09T06:32:09;19.30;76.80
45785;DHT22;31489;51.404;5.474;2023-10-09T06:34:52;19.30;76.90
45785;DHT22;31489;51.404;5.474;2023-10-09T06:37:21;19.30;76.80
45785;DHT22;31489;51.404;5.474;2023-10-09T06:39:56;19.30;76.70
45785;DHT22;31489;51.404;5.474;2023-10-09T06:42:23;19.30;76.80
45785;DHT22;31489;51.404;5.474;2023-10-09T06:45:08;19.30;76.70
45785;DHT22;31489;51.404;5.474;2023-10-09T06:47:34;19.30;76.80
45785;DHT22;31489;51.404;5.474;2023-10-09T06:50:22;19.30;76.70
45785;DHT22;31489;51.404;5.474;2023-10-09T06:52:52;19.30;76.80
45785;DHT22;31489;51.404;5.474;2023-10-09T06:55:44;19.30;76.80
45785;DHT22;31489;51.404;5.474;2023-10-09T06:58:30;19.30;76.70
45785;DHT22;31489;51.404;5.474;2023-10-09T07:01:07;19.30;76.70
45785;DHT22;31489;51.404;5.474;2023-10-09T07:03:50;19.40;76.80
45785;DHT22;31489;51.404;5.474;2023-10-09T07:06:21;19.30;76.70
45785;DHT22;31489;51.404;5.474;2023-10-09T07:08:54;19.30;76.80
45785;DHT22;31489;51.404;5.474;2023-10-09T07:11:32;19.30;76.90
45785;DHT22;31489;51.404;5.474;2023-10-09T07:14:14;19.30;76.90
45785;DHT22;31489;51.404;5.474;2023-10-09T07:17:06;19.40;76.90
45785;DHT22;31489;51.404;5.474;2023-10-09T07:19:51;19.40;77.00
45785;DHT22;31489;51.404;5.474;2023-10-09T07:22:20;19.40;76.90
45785;DHT22;31489;51.404;5.474;2023-10-09T07:24:49;19.40;77.10
45785;DHT22;31489;51.404;5.474;2023-10-09T07:30:11;19.40;76.80
45785;DHT22;31489;51.404;5.474;2023-10-09T07:33:03;19.50;76.90
45785;DHT22;31489;51.404;5.474;2023-10-09T07:35:39;19.40;77.10
45785;DHT22;31489;51.404;5.474;2023-10-09T07:38:18;19.50;77.00
45785;DHT22;31489;51.404;5.474;2023-10-09T07:40:49;19.50;77.10
45785;DHT22;31489;51.404;5.474;2023-10-09T07:43:37;19.50;76.90
45785;DHT22;31489;51.404;5.474;2023-10-09T07:49:05;19.60;76.80
45785;DHT22;31489;51.404;5.474;2023-10-09T07:51:35;19.60;76.80
45785;DHT22;31489;51.404;5.474;2023-10-09T07:54:02;19.60;76.80
45785;DHT22;31489;51.404;5.474;2023-10-09T07:56:38;19.60;76.90
45785;DHT22;31489;51.404;5.474;2023-10-09T07:59:07;19.60;76.90
45785;DHT22;31489;51.404;5.474;2023-10-09T08:01:40;19.60;76.70
45785;DHT22;31489;51.404;5.474;2023-10-09T08:04:18;19.60;77.20
45785;DHT22;31489;51.404;5.474;2023-10-09T08:06:46;19.70;77.10
45785;DHT22;31489;51.404;5.474;2023-10-09T08:09:13;19.60;76.90
45785;DHT22;31489;51.404;5.474;2023-10-09T08:11:44;19.70;76.90
45785;DHT22;31489;51.404;5.474;2023-10-09T08:14:13;19.70;77.00
45785;DHT22;31489;51.404;5.474;2023-10-09T08:16:58;19.70;77.00
45785;DHT22;31489;51.404;5.474;2023-10-09T08:19:48;19.70;76.90
45785;DHT22;31489;51.404;5.474;2023-10-09T08:22:24;19.80;77.00
45785;DHT22;31489;51.404;5.474;2023-10-09T08:24:51;19.80;77.00
45785;DHT22;31489;51.404;5.474;2023-10-09T08:27:26;19.80;77.00
45785;DHT22;31489;51.404;5.474;2023-10-09T08:30:02;19.80;77.10
45785;DHT22;31489;51.404;5.474;2023-10-09T08:32:44;19.80;77.20
45785;DHT22;31489;51.404;5.474;2023-10-09T08:35:30;19.80;77.10
45785;DHT22;31489;51.404;5.474;2023-10-09T08:38:00;19.90;77.20
45785;DHT22;31489;51.404;5.474;2023-10-09T08:40:42;19.90;77.30
45785;DHT22;31489;51.404;5.474;2023-10-09T08:43:16;20.00;77.30
45785;DHT22;31489;51.404;5.474;2023-10-09T08:45:45;20.00;77.30
45785;DHT22;31489;51.404;5.474;2023-10-09T08:48:12;20.00;77.20
45785;DHT22;31489;51.404;5.474;2023-10-09T08:50:45;20.10;77.20
45785;DHT22;31489;51.404;5.474;2023-10-09T08:53:12;20.20;77.20
45785;DHT22;31489;51.404;5.474;2023-10-09T08:55:39;20.20;77.00
45785;DHT22;31489;51.404;5.474;2023-10-09T08:58:06;20.30;77.00
45785;DHT22;31489;51.404;5.474;2023-10-09T09:00:46;20.30;76.90
45785;DHT22;31489;51.404;5.474;2023-10-09T09:03:14;20.40;77.00
45785;DHT22;31489;51.404;5.474;2023-10-09T09:05:45;20.40;77.00
45785;DHT22;31489;51.404;5.474;2023-10-09T09:08:22;20.50;76.90
45785;DHT22;31489;51.404;5.474;2023-10-09T09:10:59;20.50;76.70
45785;DHT22;31489;51.404;5.474;2023-10-09T09:13:38;20.60;76.90
45785;DHT22;31489;51.404;5.474;2023-10-09T09:16:23;20.60;76.50
45785;DHT22;31489;51.404;5.474;2023-10-09T09:19:04;20.70;76.40
45785;DHT22;31489;51.404;5.474;2023-10-09T09:21:47;20.80;76.40
45785;DHT22;31489;51.404;5.474;2023-10-09T09:24:13;20.80;76.40
45785;DHT22;31489;51.404;5.474;2023-10-09T09:26:43;20.90;76.30
45785;DHT22;31489;51.404;5.474;2023-10-09T09:29:15;21.00;76.10
45785;DHT22;31489;51.404;5.474;2023-10-09T09:31:57;21.00;75.90
45785;DHT22;31489;51.404;5.474;2023-10-09T09:34:51;21.10;76.00
45785;DHT22;31489;51.404;5.474;2023-10-09T09:37:25;21.20;75.70
45785;DHT22;31489;51.404;5.474;2023-10-09T09:40:01;21.20;75.50
45785;DHT22;31489;51.404;5.474;2023-10-09T09:42:36;21.20;75.50
45785;DHT22;31489;51.404;5.474;2023-10-09T09:45:04;21.30;75.40
45785;DHT22;31489;51.404;5.474;2023-10-09T09:47:31;21.30;75.10
45785;DHT22;31489;51.404;5.474;2023-10-09T09:50:01;21.40;75.20
45785;DHT22;31489;51.404;5.474;2023-10-09T09:52:50;21.40;75.20
45785;DHT22;31489;51.404;5.474;2023-10-09T09:55:24;21.40;75.10
45785;DHT22;31489;51.404;5.474;2023-10-09T09:57:56;21.50;75.10
45785;DHT22;31489;51.404;5.474;2023-10-09T10:00:25;21.50;75.10
45785;DHT22;31489;51.404;5.474;2023-10-09T10:03:14;21.60;75.20
45785;DHT22;31489;51.404;5.474;2023-10-09T10:05:44;21.60;74.80
45785;DHT22;31489;51.404;5.474;2023-10-09T10:08:16;21.70;74.70
45785;DHT22;31489;51.404;5.474;2023-10-09T10:10:45;21.70;74.70
45785;DHT22;31489;51.404;5.474;2023-10-09T10:16:15;21.80;74.60
45785;DHT22;31489;51.404;5.474;2023-10-09T10:18:57;21.80;74.40
45785;DHT22;31489;51.404;5.474;2023-10-09T10:21:33;21.80;73.90
45785;DHT22;31489;51.404;5.474;2023-10-09T10:35:21;22.10;73.40
45785;DHT22;31489;51.404;5.474;2023-10-09T10:38:30;22.10;73.40
45785;DHT22;31489;51.404;5.474;2023-10-09T10:41:18;22.20;73.10
45785;DHT22;31489;51.404;5.474;2023-10-09T10:43:48;22.20;72.90
45785;DHT22;31489;51.404;5.474;2023-10-09T10:46:21;22.30;73.30
45785;DHT22;31489;51.404;5.474;2023-10-09T10:48:53;22.30;73.50
45785;DHT22;31489;51.404;5.474;2023-10-09T10:51:39;22.30;73.20
45785;DHT22;31489;51.404;5.474;2023-10-09T10:54:06;22.40;73.20
45785;DHT22;31489;51.404;5.474;2023-10-09T10:56:51;22.50;73.00
45785;DHT22;31489;51.404;5.474;2023-10-09T10:59:18;22.50;72.90
45785;DHT22;31489;51.404;5.474;2023-10-09T11:01:52;22.60;72.70
45785;DHT22;31489;51.404;5.474;2023-10-09T11:04:28;22.60;72.60
45785;DHT22;31489;51.404;5.474;2023-10-09T11:07:01;22.70;72.80
45785;DHT22;31489;51.404;5.474;2023-10-09T11:09:53;22.70;72.70
45785;DHT22;31489;51.404;5.474;2023-10-09T11:12:26;22.80;72.60
45785;DHT22;31489;51.404;5.474;2023-10-09T11:15:05;22.90;72.80
45785;DHT22;31489;51.404;5.474;2023-10-09T11:17:37;22.90;72.40
45785;DHT22;31489;51.404;5.474;2023-10-09T11:20:06;23.00;72.20
45785;DHT22;31489;51.404;5.474;2023-10-09T11:22:50;23.00;72.50
45785;DHT22;31489;51.404;5.474;2023-10-09T11:25:37;23.10;72.40
45785;DHT22;31489;51.404;5.474;2023-10-09T11:28:22;23.20;72.10
45785;DHT22;31489;51.404;5.474;2023-10-09T11:31:10;23.30;71.50
45785;DHT22;31489;51.404;5.474;2023-10-09T11:33:52;23.40;71.70
45785;DHT22;31489;51.404;5.474;2023-10-09T11:36:23;23.50;71.40
45785;DHT22;31489;51.404;5.474;2023-10-09T11:39:01;23.70;71.80
45785;DHT22;31489;51.404;5.474;2023-10-09T11:41:44;23.80;71.50
45785;DHT22;31489;51.404;5.474;2023-10-09T11:44:10;23.90;71.60
45785;DHT22;31489;51.404;5.474;2023-10-09T11:46:59;24.10;71.50
45785;DHT22;31489;51.404;5.474;2023-10-09T11:49:56;24.30;70.10
45785;DHT22;31489;51.404;5.474;2023-10-09T11:52:55;24.50;69.80
45785;DHT22;31489;51.404;5.474;2023-10-09T11:55:35;24.60;69.20
45785;DHT22;31489;51.404;5.474;2023-10-09T11:58:01;24.60;69.30
45785;DHT22;31489;51.404;5.474;2023-10-09T12:00:27;24.60;69.30
45785;DHT22;31489;51.404;5.474;2023-10-09T12:02:56;24.60;69.10
45785;DHT22;31489;51.404;5.474;2023-10-09T12:05:31;24.70;68.70
45785;DHT22;31489;51.404;5.474;2023-10-09T12:07:57;24.70;68.70
45785;DHT22;31489;51.404;5.474;2023-10-09T12:10:23;24.70;68.80
45785;DHT22;31489;51.404;5.474;2023-10-09T12:12:52;24.60;68.80
45785;DHT22;31489;51.404;5.474;2023-10-09T12:15:18;24.70;68.60
45785;DHT22;31489;51.404;5.474;2023-10-09T12:17:45;24.60;68.50
45785;DHT22;31489;51.404;5.474;2023-10-09T12:20:13;24.60;68.50
45785;DHT22;31489;51.404;5.474;2023-10-09T12:23:04;24.60;68.60
45785;DHT22;31489;51.404;5.474;2023-10-09T12:25:31;24.60;68.50
45785;DHT22;31489;51.404;5.474;2023-10-09T12:27:58;24.60;69.10
45785;DHT22;31489;51.404;5.474;2023-10-09T12:30:27;24.50;68.50
45785;DHT22;31489;51.404;5.474;2023-10-09T12:32:54;24.50;68.40
45785;DHT22;31489;51.404;5.474;2023-10-09T12:35:20;24.50;68.30
45785;DHT22;31489;51.404;5.474;2023-10-09T12:37:46;24.40;68.40
45785;DHT22;31489;51.404;5.474;2023-10-09T12:40:12;24.40;68.30
45785;DHT22;31489;51.404;5.474;2023-10-09T12:42:38;24.40;68.30
45785;DHT22;31489;51.404;5.474;2023-10-09T12:45:06;24.30;68.90
45785;DHT22;31489;51.404;5.474;2023-10-09T12:47:35;24.30;68.60
45785;DHT22;31489;51.404;5.474;2023-10-09T12:50:05;24.30;68.80
45785;DHT22;31489;51.404;5.474;2023-10-09T12:52:35;24.40;68.80
45785;DHT22;31489;51.404;5.474;2023-10-09T12:55:03;24.30;68.80
45785;DHT22;31489;51.404;5.474;2023-10-09T12:57:32;24.30;68.60
45785;DHT22;31489;51.404;5.474;2023-10-09T12:59:58;24.40;68.60
45785;DHT22;31489;51.404;5.474;2023-10-09T13:02:23;24.40;68.70
45785;DHT22;31489;51.404;5.474;2023-10-09T13:04:59;24.40;68.50
45785;DHT22;31489;51.404;5.474;2023-10-09T13:07:31;24.40;68.20
45785;DHT22;31489;51.404;5.474;2023-10-09T13:09:56;24.40;68.80
45785;DHT22;31489;51.404;5.474;2023-10-09T13:12:34;24.40;68.70
45785;DHT22;31489;51.404;5.474;2023-10-09T13:15:05;24.40;68.80
45785;DHT22;31489;51.404;5.474;2023-10-09T13:17:35;24.40;68.90
45785;DHT22;31489;51.404;5.474;2023-10-09T13:20:02;24.50;68.90
45785;DHT22;31489;51.404;5.474;2023-10-09T13:22:41;24.50;68.70
45785;DHT22;31489;51.404;5.474;2023-10-09T13:25:09;24.60;68.50
45785;DHT22;31489;51.404;5.474;2023-10-09T13:27:44;24.70;68.50
45785;DHT22;31489;51.404;5.474;2023-10-09T13:30:19;24.80;68.30
45785;DHT22;31489;51.404;5.474;2023-10-09T13:32:51;24.80;67.80
45785;DHT22;31489;51.404;5.474;2023-10-09T13:35:18;24.90;67.50
45785;DHT22;31489;51.404;5.474;2023-10-09T13:37:45;24.90;67.70
45785;DHT22;31489;51.404;5.474;2023-10-09T13:40:22;24.90;67.60
45785;DHT22;31489;51.404;5.474;2023-10-09T13:42:55;24.90;67.70
45785;DHT22;31489;51.404;5.474;2023-10-09T13:45:27;25.00;67.90
45785;DHT22;31489;51.404;5.474;2023-10-09T13:47:57;25.00;67.80
45785;DHT22;31489;51.404;5.474;2023-10-09T13:50:26;25.00;67.50
45785;DHT22;31489;51.404;5.474;2023-10-09T13:52:58;25.00;68.30
45785;DHT22;31489;51.404;5.474;2023-10-09T13:55:24;25.10;68.60
45785;DHT22;31489;51.404;5.474;2023-10-09T13:58:00;25.10;68.10
45785;DHT22;31489;51.404;5.474;2023-10-09T14:00:25;25.10;67.90
45785;DHT22;31489;51.404;5.474;2023-10-09T14:03:07;25.20;67.50
45785;DHT22;31489;51.404;5.474;2023-10-09T14:05:40;25.20;67.10
45785;DHT22;31489;51.404;5.474;2023-10-09T14:08:20;25.20;67.10
45785;DHT22;31489;51.404;5.474;2023-10-09T14:10:49;25.30;67.00
45785;DHT22;31489;51.404;5.474;2023-10-09T14:13:16;25.30;67.00
45785;DHT22;31489;51.404;5.474;2023-10-09T14:15:42;25.40;67.00
45785;DHT22;31489;51.404;5.474;2023-10-09T14:18:09;25.50;67.10
45785;DHT22;31489;51.404;5.474;2023-10-09T14:20:37;25.60;66.90
45785;DHT22;31489;51.404;5.474;2023-10-09T14:23:03;25.70;66.80
45785;DHT22;31489;51.404;5.474;2023-10-09T14:25:33;25.70;66.40
45785;DHT22;31489;51.404;5.474;2023-10-09T14:28:05;25.80;66.30
45785;DHT22;31489;51.404;5.474;2023-10-09T14:30:38;25.90;66.00
45785;DHT22;31489;51.404;5.474;2023-10-09T14:33:13;25.90;65.30
45785;DHT22;31489;51.404;5.474;2023-10-09T14:35:44;25.90;64.70
45785;DHT22;31489;51.404;5.474;2023-10-09T14:38:10;25.90;64.50
45785;DHT22;31489;51.404;5.474;2023-10-09T14:40:44;25.90;64.60
45785;DHT22;31489;51.404;5.474;2023-10-09T14:43:10;25.80;64.30
45785;DHT22;31489;51.404;5.474;2023-10-09T14:45:50;25.80;64.40
45785;DHT22;31489;51.404;5.474;2023-10-09T14:48:19;25.70;64.70
45785;DHT22;31489;51.404;5.474;2023-10-09T14:50:52;25.60;64.80
45785;DHT22;31489;51.404;5.474;2023-10-09T14:53:19;25.50;64.90
45785;DHT22;31489;51.404;5.474;2023-10-09T14:55:46;25.50;65.20
45785;DHT22;31489;51.404;5.474;2023-10-09T14:58:13;25.40;65.20
45785;DHT22;31489;51.404;5.474;2023-10-09T15:00:39;25.40;65.30
45785;DHT22;31489;51.404;5.474;2023-10-09T15:03:13;25.30;65.50
45785;DHT22;31489;51.404;5.474;2023-10-09T15:05:43;25.30;65.40
45785;DHT22;31489;51.404;5.474;2023-10-09T15:08:09;25.30;65.50
45785;DHT22;31489;51.404;5.474;2023-10-09T15:10:50;25.20;65.50
45785;DHT22;31489;51.404;5.474;2023-10-09T15:13:21;25.10;65.60
45785;DHT22;31489;51.404;5.474;2023-10-09T15:15:53;25.10;65.90
45785;DHT22;31489;51.404;5.474;2023-10-09T15:18:20;25.10;66.00
45785;DHT22;31489;51.404;5.474;2023-10-09T15:20:47;25.00;66.10
45785;DHT22;31489;51.404;5.474;2023-10-09T15:23:13;25.00;66.30
45785;DHT22;31489;51.404;5.474;2023-10-09T15:25:39;24.90;66.30
45785;DHT22;31489;51.404;5.474;2023-10-09T15:28:08;24.90;66.60
45785;DHT22;31489;51.404;5.474;2023-10-09T15:30:35;24.90;66.80
45785;DHT22;31489;51.404;5.474;2023-10-09T15:33:04;24.90;67.00
45785;DHT22;31489;51.404;5.474;2023-10-09T15:35:30;24.80;67.30
45785;DHT22;31489;51.404;5.474;2023-10-09T15:38:03;24.80;67.30
45785;DHT22;31489;51.404;5.474;2023-10-09T15:40:32;24.70;67.40
45785;DHT22;31489;51.404;5.474;2023-10-09T15:43:03;24.70;67.60
45785;DHT22;31489;51.404;5.474;2023-10-09T15:45:30;24.70;67.70
45785;DHT22;31489;51.404;5.474;2023-10-09T15:47:57;24.70;67.70
45785;DHT22;31489;51.404;5.474;2023-10-09T15:50:25;24.70;67.70
45785;DHT22;31489;51.404;5.474;2023-10-09T15:52:54;24.70;67.80
45785;DHT22;31489;51.404;5.474;2023-10-09T15:55:21;24.70;67.90
45785;DHT22;31489;51.404;5.474;2023-10-09T15:57:50;24.70;68.10
45785;DHT22;31489;51.404;5.474;2023-10-09T16:00:21;24.70;68.10
45785;DHT22;31489;51.404;5.474;2023-10-09T16:02:48;24.70;68.10
45785;DHT22;31489;51.404;5.474;2023-10-09T16:05:14;24.60;68.10
45785;DHT22;31489;51.404;5.474;2023-10-09T16:07:45;24.60;68.00
45785;DHT22;31489;51.404;5.474;2023-10-09T16:10:10;24.60;67.90
45785;DHT22;31489;51.404;5.474;2023-10-09T16:12:43;24.60;67.70
45785;DHT22;31489;51.404;5.474;2023-10-09T16:15:13;24.50;67.70
45785;DHT22;31489;51.404;5.474;2023-10-09T16:17:40;24.50;67.70
45785;DHT22;31489;51.404;5.474;2023-10-09T16:20:08;24.40;67.70
45785;DHT22;31489;51.404;5.474;2023-10-09T16:22:40;24.40;67.80
45785;DHT22;31489;51.404;5.474;2023-10-09T16:25:06;24.40;68.30
45785;DHT22;31489;51.404;5.474;2023-10-09T16:27:38;24.30;67.90
45785;DHT22;31489;51.404;5.474;2023-10-09T16:30:14;24.20;67.90
45785;DHT22;31489;51.404;5.474;2023-10-09T16:32:44;24.20;68.20
45785;DHT22;31489;51.404;5.474;2023-10-09T16:35:11;24.20;68.10